Time;durP1;ratioP1;P1;durP2;ratioP2;P2;SDS_P1;SDS_P2;PMS_P1;PMS_P2;Temp;Humidity;BMP_temperature;BMP_pressure;BME280_temperature;BME280_humidity;BME280_pressure;Samples;Min_cycle;Max_cycle;Signal;HPM_P1;HPM_P2
2021/04/04 00:00:10;;;;;;;24.10;3.50;;;7.00;82.00;;;;;;4372031;32;20194;-66
2021/04/04 00:02:36;;;;;;;13.70;3.10;;;7.00;82.10;;;;;;4377517;32;20199;-66
2021/04/04 00:05:03;;;;;;;14.63;3.53;;;7.00;82.20;;;;;;4374217;32;20263;-65
2021/04/04 00:07:29;;;;;;;16.83;3.40;;;7.10;81.90;;;;;;4376124;32;20224;-63
2021/04/04 00:10:02;;;;;;;18.77;3.67;;;7.10;81.90;;;;;;4373390;32;20239;-63
2021/04/04 00:12:28;;;;;;;25.57;3.80;;;7.10;82.40;;;;;;4374520;32;20168;-63
2021/04/04 00:14:54;;;;;;;19.97;3.70;;;7.00;82.90;;;;;;4375032;32;20216;-64
2021/04/04 00:17:23;;;;;;;15.37;4.57;;;7.00;83.20;;;;;;4376209;32;20220;-64
2021/04/04 00:19:49;;;;;;;18.10;3.27;;;7.00;83.10;;;;;;4374248;32;20179;-64
2021/04/04 00:22:16;;;;;;;16.00;4.27;;;6.90;83.70;;;;;;4374800;32;20183;-65
2021/04/04 00:24:42;;;;;;;13.83;3.70;;;6.90;83.70;;;;;;4369522;32;20228;-64
2021/04/04 00:27:09;;;;;;;16.43;3.43;;;6.90;83.50;;;;;;4370218;32;20187;-64
2021/04/04 00:29:35;;;;;;;16.33;3.43;;;7.00;83.70;;;;;;4373432;32;20251;-65
2021/04/04 00:32:02;;;;;;;19.10;4.53;;;6.80;84.10;;;;;;4365272;32;20163;-64
2021/04/04 00:34:28;;;;;;;13.80;3.97;;;6.80;84.60;;;;;;4370638;32;20220;-64
2021/04/04 00:36:54;;;;;;;15.97;3.43;;;6.70;84.90;;;;;;4369231;32;20216;-64
2021/04/04 00:39:21;;;;;;;19.13;3.57;;;6.80;85.10;;;;;;4363687;32;20581;-65
2021/04/04 00:41:47;;;;;;;17.43;3.47;;;6.80;84.80;;;;;;4372951;32;20242;-64
2021/04/04 00:44:15;;;;;;;11.20;2.90;;;6.80;84.50;;;;;;4375178;32;20302;-64
2021/04/04 00:46:41;;;;;;;20.23;3.97;;;6.80;84.40;;;;;;4371568;32;20148;-65
2021/04/04 00:49:08;;;;;;;17.00;3.20;;;6.80;84.40;;;;;;4374722;32;20152;-65
2021/04/04 00:51:35;;;;;;;12.10;2.90;;;6.80;84.30;;;;;;4371054;32;20223;-66
2021/04/04 00:54:02;;;;;;;9.20;2.60;;;7.00;84.10;;;;;;4370648;32;20569;-64
2021/04/04 00:56:29;;;;;;;13.60;3.03;;;6.80;84.40;;;;;;4368414;32;20206;-65
2021/04/04 00:59:01;;;;;;;15.37;4.07;;;6.90;84.40;;;;;;4373684;32;20228;-64
2021/04/04 01:01:29;;;;;;;10.57;3.40;;;6.90;84.40;;;;;;4372025;32;20160;-63
2021/04/04 01:03:55;;;;;;;18.60;3.13;;;6.90;84.60;;;;;;4371073;32;20179;-64
2021/04/04 01:06:22;;;;;;;15.47;3.43;;;7.00;84.50;;;;;;4374356;32;20305;-64
2021/04/04 01:08:48;;;;;;;15.03;3.10;;;6.90;84.80;;;;;;4373539;32;20236;-68
2021/04/04 01:11:22;;;;;;;17.57;3.60;;;7.00;84.80;;;;;;4363690;32;20164;-63
2021/04/04 01:13:54;;;;;;;17.33;3.93;;;7.00;85.30;;;;;;4372571;32;20227;-66
2021/04/04 01:16:25;;;;;;;11.77;3.13;;;6.80;86.60;;;;;;4370966;32;20290;-64
2021/04/04 01:18:59;;;;;;;21.20;4.03;;;6.80;86.20;;;;;;4374988;32;20228;-64
2021/04/04 01:21:31;;;;;;;23.63;4.07;;;6.70;86.90;;;;;;4364821;32;20222;-64
2021/04/04 01:24:26;;;;;;;20.30;4.37;;;6.80;86.80;;;;;;4372628;32;20275;-64
2021/04/04 01:26:59;;;;;;;14.53;3.53;;;6.80;86.60;;;;;;4312402;33;20232;-64
2021/04/04 01:29:29;;;;;;;12.23;3.50;;;6.80;86.80;;;;;;4309581;33;20230;-63
2021/04/04 01:31:56;;;;;;;13.53;3.50;;;6.80;87.10;;;;;;4310251;33;20328;-64
2021/04/04 01:34:24;;;;;;;11.80;3.30;;;6.70;87.20;;;;;;4301872;33;20268;-67
2021/04/04 01:36:53;;;;;;;19.17;3.50;;;6.80;87.10;;;;;;4313262;33;20676;-67
2021/04/04 01:39:26;;;;;;;15.87;3.37;;;6.70;87.10;;;;;;4305525;33;20161;-66
2021/04/04 01:41:54;;;;;;;10.93;3.30;;;6.70;87.30;;;;;;4301674;33;20502;-65
2021/04/04 01:44:24;;;;;;;15.10;3.37;;;6.80;86.30;;;;;;4310484;33;20178;-62
2021/04/04 01:46:55;;;;;;;19.77;3.70;;;6.70;86.40;;;;;;4312456;33;20520;-68
2021/04/04 01:49:22;;;;;;;13.47;3.67;;;6.60;86.70;;;;;;4300501;33;20590;-63
2021/04/04 01:51:49;;;;;;;16.53;2.83;;;6.60;86.20;;;;;;4307512;33;20224;-64
2021/04/04 01:54:17;;;;;;;16.40;3.07;;;6.60;86.50;;;;;;4311863;33;20237;-63
2021/04/04 01:56:44;;;;;;;16.13;3.47;;;6.70;86.40;;;;;;4309953;33;20260;-65
2021/04/04 01:59:12;;;;;;;13.67;3.40;;;6.70;85.80;;;;;;4304083;33;20177;-65
2021/04/04 02:01:39;;;;;;;16.43;3.70;;;6.80;85.00;;;;;;4312688;33;20232;-67
2021/04/04 02:04:10;;;;;;;11.80;2.90;;;6.80;84.80;;;;;;4351276;32;20157;-63
2021/04/04 02:06:43;;;;;;;19.10;3.87;;;6.70;85.00;;;;;;4373681;32;20149;-63
2021/04/04 02:09:13;;;;;;;12.50;2.80;;;6.70;84.90;;;;;;4377659;32;20179;-65
2021/04/04 02:11:41;;;;;;;13.77;3.20;;;6.80;84.90;;;;;;4369285;32;20207;-66
2021/04/04 02:14:11;;;;;;;16.63;3.40;;;6.60;84.80;;;;;;4377788;32;20157;-63
2021/04/04 02:16:43;;;;;;;20.43;3.83;;;6.60;84.80;;;;;;4376315;32;20236;-63
2021/04/04 02:19:12;;;;;;;13.77;3.50;;;6.60;84.70;;;;;;4377817;32;20219;-63
2021/04/04 02:21:40;;;;;;;16.70;2.90;;;6.70;84.50;;;;;;4369162;32;20366;-63
2021/04/04 02:24:08;;;;;;;19.97;2.80;;;6.60;84.80;;;;;;4377577;32;20152;-64
2021/04/04 02:26:34;;;;;;;15.90;2.73;;;6.60;84.90;;;;;;4378229;32;20168;-63
2021/04/04 02:29:01;;;;;;;15.10;3.10;;;6.50;84.80;;;;;;4378456;32;20175;-63
2021/04/04 02:31:50;;;;;;;14.17;3.70;;;6.60;84.50;;;;;;4373105;32;20207;-64
2021/04/04 02:34:21;;;;;;;13.87;3.60;;;6.60;84.50;;;;;;4374673;32;20254;-64
2021/04/04 02:36:48;;;;;;;13.07;3.00;;;6.60;85.00;;;;;;4373404;32;20182;-64
2021/04/04 02:39:26;;;;;;;13.03;2.93;;;6.60;85.00;;;;;;4377869;32;20149;-64
2021/04/04 02:41:53;;;;;;;13.37;2.97;;;6.70;84.30;;;;;;4367458;32;20281;-64
2021/04/04 02:44:20;;;;;;;14.57;3.03;;;6.70;84.20;;;;;;4373799;32;20140;-64
2021/04/04 02:46:54;;;;;;;15.13;3.00;;;6.70;84.00;;;;;;4368648;32;20267;-63
2021/04/04 02:49:27;;;;;;;13.57;3.27;;;6.80;84.20;;;;;;4375180;32;20204;-64
2021/04/04 02:51:54;;;;;;;13.10;2.73;;;6.70;84.40;;;;;;4369750;32;20467;-63
2021/04/04 02:54:24;;;;;;;16.50;2.77;;;6.80;83.90;;;;;;4377357;32;20535;-64
2021/04/04 02:56:56;;;;;;;13.77;2.60;;;6.60;84.00;;;;;;4374717;32;20218;-64
2021/04/04 02:59:26;;;;;;;18.37;3.37;;;6.70;84.10;;;;;;4370719;32;20727;-63
2021/04/04 03:01:54;;;;;;;16.60;2.87;;;6.60;84.60;;;;;;4378319;32;20215;-64
2021/04/04 03:04:22;;;;;;;15.63;3.07;;;6.50;84.50;;;;;;4375935;32;20229;-64
2021/04/04 03:06:50;;;;;;;13.17;3.17;;;6.60;84.90;;;;;;4377696;32;20218;-65
2021/04/04 03:09:21;;;;;;;11.93;2.33;;;6.60;84.70;;;;;;4374425;32;20203;-63
2021/04/04 03:11:48;;;;;;;13.80;3.20;;;6.70;84.40;;;;;;4367401;32;20196;-64
2021/04/04 03:14:16;;;;;;;13.37;3.23;;;6.60;84.30;;;;;;4374848;32;20195;-64
2021/04/04 03:16:44;;;;;;;15.27;2.57;;;6.60;84.50;;;;;;4372602;32;20208;-64
2021/04/04 03:19:13;;;;;;;14.00;3.47;;;6.70;84.20;;;;;;4375451;32;20359;-63
2021/04/04 03:21:42;;;;;;;15.13;3.47;;;6.60;84.50;;;;;;4376872;32;20215;-64
2021/04/04 03:24:10;;;;;;;19.23;3.27;;;6.70;84.70;;;;;;4368404;32;20175;-63
2021/04/04 03:26:40;;;;;;;14.80;2.97;;;6.70;84.60;;;;;;4367570;32;20164;-63
2021/04/04 03:29:08;;;;;;;15.43;3.13;;;6.60;84.80;;;;;;4375887;32;20649;-64
2021/04/04 03:31:35;;;;;;;10.23;2.57;;;6.70;85.10;;;;;;4369640;32;20219;-64
2021/04/04 03:34:03;;;;;;;10.20;3.23;;;6.70;85.30;;;;;;4368550;32;20216;-63
2021/04/04 03:36:30;;;;;;;13.03;3.07;;;6.70;85.20;;;;;;4372560;32;20207;-64
2021/04/04 03:38:58;;;;;;;15.77;2.90;;;6.60;85.30;;;;;;4374334;32;20159;-64
2021/04/04 03:41:26;;;;;;;29.43;3.87;;;6.70;85.10;;;;;;4372707;32;20219;-64
2021/04/04 03:43:54;;;;;;;17.07;3.30;;;6.70;85.30;;;;;;4373613;32;20283;-63
2021/04/04 03:46:25;;;;;;;17.30;4.50;;;6.70;85.60;;;;;;4374175;32;20227;-64
2021/04/04 03:48:53;;;;;;;16.07;3.37;;;6.70;85.80;;;;;;4367385;32;20156;-64
2021/04/04 03:51:24;;;;;;;13.10;3.20;;;6.60;86.40;;;;;;4373097;32;20219;-64
2021/04/04 03:53:51;;;;;;;12.13;2.90;;;6.60;86.40;;;;;;4374838;32;20148;-64
2021/04/04 03:56:23;;;;;;;16.97;4.07;;;6.80;85.90;;;;;;4368913;32;20565;-63
2021/04/04 03:58:50;;;;;;;12.00;2.93;;;6.80;85.80;;;;;;4367799;32;20153;-63
2021/04/04 04:01:22;;;;;;;18.17;3.97;;;6.80;85.80;;;;;;4372400;32;20168;-64
2021/04/04 04:03:49;;;;;;;13.50;3.20;;;6.80;86.10;;;;;;4371821;32;20183;-64
2021/04/04 04:06:16;;;;;;;16.13;3.00;;;6.80;85.90;;;;;;4367062;32;20148;-63
2021/04/04 04:08:43;;;;;;;13.57;3.47;;;6.80;85.70;;;;;;4371490;32;20644;-64
2021/04/04 04:11:10;;;;;;;15.43;3.47;;;6.70;86.10;;;;;;4371194;32;20227;-64
2021/04/04 04:13:39;;;;;;;15.27;3.57;;;6.50;86.90;;;;;;4373736;32;20168;-64
2021/04/04 04:16:09;;;;;;;14.33;3.73;;;6.50;87.20;;;;;;4366128;32;20224;-64
2021/04/04 04:18:41;;;;;;;15.40;2.70;;;6.50;87.30;;;;;;4368586;32;20206;-63
2021/04/04 04:21:08;;;;;;;13.97;2.93;;;6.50;87.90;;;;;;4374796;32;20297;-63
2021/04/04 04:23:37;;;;;;;13.17;3.20;;;6.60;87.40;;;;;;4374016;32;20160;-64
2021/04/04 04:26:04;;;;;;;10.33;3.20;;;6.70;87.10;;;;;;4371299;32;20667;-63
2021/04/04 04:28:33;;;;;;;10.97;3.00;;;6.60;87.50;;;;;;4370638;32;20236;-64
2021/04/04 04:31:00;;;;;;;13.63;2.97;;;6.60;87.80;;;;;;4375726;32;20209;-64
2021/04/04 04:33:27;;;;;;;17.60;3.63;;;6.60;87.40;;;;;;4364090;32;20236;-64
2021/04/04 04:35:53;;;;;;;18.73;3.40;;;6.50;87.80;;;;;;4371465;32;20235;-64
2021/04/04 04:38:20;;;;;;;13.43;3.47;;;6.60;87.80;;;;;;4367161;32;20148;-64
2021/04/04 04:40:47;;;;;;;12.80;3.67;;;6.60;87.80;;;;;;4374355;32;20171;-64
2021/04/04 04:43:19;;;;;;;10.70;3.17;;;6.60;87.80;;;;;;4368735;32;20219;-64
2021/04/04 04:45:46;;;;;;;16.43;3.53;;;6.60;87.70;;;;;;4373864;32;20192;-64
2021/04/04 04:48:14;;;;;;;17.53;3.40;;;6.70;87.50;;;;;;4374340;32;20337;-64
2021/04/04 04:50:42;;;;;;;13.93;3.10;;;6.60;87.90;;;;;;4369993;32;20164;-63
2021/04/04 04:53:09;;;;;;;13.50;3.87;;;6.50;87.90;;;;;;4374199;32;20521;-64
2021/04/04 04:55:36;;;;;;;12.53;3.73;;;6.60;88.10;;;;;;4373576;32;20216;-63
2021/04/04 04:58:08;;;;;;;11.70;3.70;;;6.50;88.40;;;;;;4371429;32;20172;-64
2021/04/04 05:00:36;;;;;;;15.80;2.80;;;6.40;88.60;;;;;;4367525;32;20148;-64
2021/04/04 05:03:03;;;;;;;8.60;2.67;;;6.50;88.60;;;;;;4368599;32;20216;-63
2021/04/04 05:05:30;;;;;;;13.33;3.37;;;6.50;88.40;;;;;;4372956;32;20640;-63
2021/04/04 05:07:58;;;;;;;14.50;4.20;;;6.50;88.40;;;;;;4371609;32;20182;-63
2021/04/04 05:10:28;;;;;;;10.40;3.10;;;6.40;89.30;;;;;;4374341;32;20219;-63
2021/04/04 05:12:58;;;;;;;10.67;2.83;;;6.30;89.90;;;;;;4373572;32;20532;-63
2021/04/04 05:15:25;;;;;;;15.13;4.00;;;6.30;90.00;;;;;;4373887;32;20216;-63
2021/04/04 05:17:52;;;;;;;10.33;3.27;;;6.40;89.70;;;;;;4373380;32;20998;-64
2021/04/04 05:20:20;;;;;;;11.87;3.00;;;6.50;89.50;;;;;;4369109;32;20259;-63
2021/04/04 05:22:47;;;;;;;11.13;3.40;;;6.60;89.60;;;;;;4365767;32;20186;-64
2021/04/04 05:25:15;;;;;;;9.57;3.17;;;6.60;88.90;;;;;;4367905;32;20239;-64
2021/04/04 05:27:41;;;;;;;12.20;2.77;;;6.50;89.40;;;;;;4371892;32;20160;-64
2021/04/04 05:30:10;;;;;;;22.67;3.70;;;6.40;89.50;;;;;;4370623;32;20184;-64
2021/04/04 05:32:44;;;;;;;10.50;3.07;;;6.40;89.70;;;;;;4367468;32;20176;-63
2021/04/04 05:35:17;;;;;;;12.60;3.37;;;6.40;89.90;;;;;;4364619;32;20589;-64
2021/04/04 05:37:44;;;;;;;10.03;2.73;;;6.50;89.40;;;;;;4373182;32;20228;-64
2021/04/04 05:40:18;;;;;;;9.20;3.30;;;6.60;89.20;;;;;;4374294;32;20187;-63
2021/04/04 05:42:50;;;;;;;12.40;3.70;;;6.60;89.30;;;;;;4373140;32;20183;-63
2021/04/04 05:45:23;;;;;;;10.33;3.17;;;6.60;89.00;;;;;;4374272;32;20203;-64
2021/04/04 05:48:04;;;;;;;15.27;3.03;;;6.60;88.90;;;;;;4372638;32;20164;-66
2021/04/04 05:50:39;;;;;;;12.27;3.03;;;6.70;88.80;;;;;;4371376;32;20170;-63
2021/04/04 05:53:16;;;;;;;9.40;2.90;;;6.80;88.40;;;;;;4371096;32;20239;-64
2021/04/04 05:55:58;;;;;;;7.27;3.03;;;6.70;88.30;;;;;;4366064;32;20223;-63
2021/04/04 05:58:31;;;;;;;10.00;2.90;;;6.80;88.20;;;;;;4362030;32;20667;-64
2021/04/04 06:01:15;;;;;;;11.77;4.20;;;6.70;87.20;;;;;;4363658;32;20187;-63
2021/04/04 06:04:05;;;;;;;9.20;2.80;;;6.60;88.20;;;;;;4361540;32;20671;-64
2021/04/04 06:06:55;;;;;;;11.43;3.13;;;6.70;88.10;;;;;;4366632;32;20164;-64
2021/04/04 06:09:37;;;;;;;10.70;2.77;;;6.60;88.30;;;;;;4358992;32;20275;-62
2021/04/04 06:12:15;;;;;;;11.57;3.00;;;6.60;88.10;;;;;;4357055;32;20148;-64
2021/04/04 06:14:55;;;;;;;8.63;2.77;;;6.60;88.00;;;;;;4359909;32;20568;-64
2021/04/04 06:17:29;;;;;;;7.93;2.60;;;6.80;87.70;;;;;;4355430;32;20179;-63
2021/04/04 06:20:26;;;;;;;9.97;2.63;;;6.70;87.70;;;;;;4346099;32;20239;-63
2021/04/04 06:23:05;;;;;;;8.80;2.40;;;6.70;87.80;;;;;;4360001;32;20540;-64
2021/04/04 06:25:48;;;;;;;6.43;2.93;;;6.80;87.50;;;;;;4357251;33;20500;-64
2021/04/04 06:28:25;;;;;;;10.60;2.73;;;6.70;87.50;;;;;;4356893;33;20224;-65
2021/04/04 06:31:01;;;;;;;11.40;2.90;;;6.70;87.40;;;;;;4356519;33;20156;-63
2021/04/04 06:33:28;;;;;;;9.50;2.80;;;6.70;87.30;;;;;;4357757;33;20188;-63
2021/04/04 06:36:16;;;;;;;11.67;3.43;;;6.70;86.90;;;;;;4359466;33;20220;-63
2021/04/04 06:39:04;;;;;;;4.90;2.50;;;6.70;87.30;;;;;;4353997;33;20175;-63
2021/04/04 06:42:01;;;;;;;7.43;2.70;;;6.80;86.90;;;;;;4356225;33;20184;-64
2021/04/04 06:44:38;;;;;;;10.03;3.07;;;7.00;86.40;;;;;;4294245;33;20240;-63
2021/04/04 06:47:14;;;;;;;5.67;2.13;;;7.10;85.10;;;;;;4297504;33;20166;-64
2021/04/04 06:49:50;;;;;;;7.83;2.97;;;7.00;85.00;;;;;;4296504;33;20224;-63
2021/04/04 06:52:30;;;;;;;7.00;3.03;;;7.00;85.10;;;;;;4299654;33;20505;-63
2021/04/04 06:55:03;;;;;;;9.53;2.87;;;7.00;84.80;;;;;;4298245;33;20240;-63
2021/04/04 06:58:10;;;;;;;9.60;3.80;;;7.00;84.80;;;;;;4299713;33;20255;-62
2021/04/04 07:00:44;;;;;;;9.63;3.20;;;7.10;85.00;;;;;;4222009;34;20629;-62
2021/04/04 07:03:18;;;;;;;9.30;3.60;;;7.20;85.00;;;;;;4231902;33;20167;-62
2021/04/04 07:05:50;;;;;;;14.57;3.40;;;7.00;84.40;;;;;;4222110;33;20618;-62
2021/04/04 07:08:42;;;;;;;12.00;3.77;;;7.00;85.60;;;;;;4228049;34;20178;-62
2021/04/04 07:11:32;;;;;;;7.00;3.33;;;7.10;84.90;;;;;;4169239;33;1319466;-62
2021/04/04 07:14:31;;;;;;;9.33;3.33;;;6.90;85.50;;;;;;4212001;34;20211;-62
2021/04/04 07:17:12;;;;;;;8.00;3.10;;;6.80;86.20;;;;;;4210705;34;20606;-61
2021/04/04 07:19:53;;;;;;;9.93;3.93;;;6.70;87.20;;;;;;4211647;34;20236;-61
2021/04/04 07:22:48;;;;;;;9.27;2.80;;;6.60;87.70;;;;;;4260568;33;20201;-63
2021/04/04 07:25:39;;;;;;;10.47;4.13;;;6.70;87.40;;;;;;4269706;33;20237;-59
2021/04/04 07:28:12;;;;;;;7.67;3.17;;;6.80;86.70;;;;;;4266366;33;20188;-62
2021/04/04 07:30:41;;;;;;;4.23;2.83;;;7.00;86.70;;;;;;4269812;33;20222;-61
2021/04/04 07:33:29;;;;;;;5.87;2.80;;;7.10;86.10;;;;;;4270481;33;20211;-65
2021/04/04 07:36:04;;;;;;;6.43;2.80;;;7.10;86.10;;;;;;4285622;33;20193;-62
2021/04/04 07:38:41;;;;;;;6.30;3.00;;;7.00;86.40;;;;;;4309876;33;20265;-62
2021/04/04 07:41:12;;;;;;;5.53;3.40;;;6.90;87.20;;;;;;4309744;33;20217;-65
2021/04/04 07:43:48;;;;;;;8.63;3.17;;;6.90;87.50;;;;;;4312475;33;20200;-63
2021/04/04 07:46:22;;;;;;;9.87;3.67;;;7.00;87.30;;;;;;4311545;33;20795;-63
2021/04/04 07:49:09;;;;;;;7.90;3.23;;;6.90;87.30;;;;;;4346105;32;20205;-63
2021/04/04 07:51:39;;;;;;;4.90;2.30;;;6.90;88.00;;;;;;4356281;32;20228;-63
2021/04/04 07:54:09;;;;;;;6.20;2.23;;;7.10;87.80;;;;;;4356896;33;20386;-64
2021/04/04 07:56:40;;;;;;;6.40;2.53;;;7.30;86.60;;;;;;4355169;33;20227;-65
2021/04/04 07:59:17;;;;;;;6.77;2.30;;;7.20;86.30;;;;;;4351241;32;20152;-64
2021/04/04 08:01:50;;;;;;;5.63;2.03;;;7.20;86.80;;;;;;4352804;32;20624;-62
2021/04/04 08:04:26;;;;;;;5.53;2.30;;;7.20;86.50;;;;;;4356728;33;20184;-65
2021/04/04 08:06:58;;;;;;;7.10;2.53;;;7.40;86.30;;;;;;4358595;33;20203;-64
2021/04/04 08:09:31;;;;;;;5.80;2.97;;;6.90;86.40;;;;;;4362149;32;20179;-67
2021/04/04 08:12:08;;;;;;;11.03;2.87;;;6.90;87.80;;;;;;4350570;32;20165;-65
2021/04/04 08:14:45;;;;;;;7.13;2.77;;;7.10;87.50;;;;;;4360133;32;20179;-62
2021/04/04 08:17:15;;;;;;;8.67;3.50;;;7.20;86.60;;;;;;4359408;32;20477;-65
2021/04/04 08:19:56;;;;;;;8.30;2.37;;;7.30;85.40;;;;;;4353120;32;20608;-63
2021/04/04 08:22:27;;;;;;;5.97;3.00;;;7.30;85.10;;;;;;4362477;32;20204;-63
2021/04/04 08:24:58;;;;;;;8.83;3.10;;;7.40;85.10;;;;;;4360657;32;20180;-63
2021/04/04 08:27:30;;;;;;;9.20;3.23;;;7.50;84.30;;;;;;4363867;32;20191;-63
2021/04/04 08:30:18;;;;;;;10.37;3.10;;;7.70;83.70;;;;;;4351734;33;20160;-66
2021/04/04 08:32:47;;;;;;;7.93;2.50;;;7.80;83.40;;;;;;4358704;32;20179;-66
2021/04/04 08:35:23;;;;;;;9.40;3.03;;;7.60;83.50;;;;;;4366267;32;20176;-64
2021/04/04 08:37:54;;;;;;;7.93;3.13;;;7.60;83.40;;;;;;4358348;33;20234;-63
2021/04/04 08:40:24;;;;;;;11.33;4.17;;;7.70;83.50;;;;;;4353543;33;20208;-64
2021/04/04 08:42:54;;;;;;;8.70;3.43;;;7.50;83.40;;;;;;4361371;32;20172;-63
2021/04/04 08:45:29;;;;;;;11.83;4.43;;;7.70;83.50;;;;;;4360603;32;20164;-63
2021/04/04 08:47:56;;;;;;;11.90;3.53;;;7.70;83.30;;;;;;4360054;32;20165;-63
2021/04/04 08:50:26;;;;;;;10.27;3.97;;;7.90;82.60;;;;;;4359919;32;20161;-63
2021/04/04 08:53:00;;;;;;;11.17;3.90;;;7.70;82.00;;;;;;4369084;32;20202;-63
2021/04/04 08:55:28;;;;;;;11.90;3.77;;;7.70;82.10;;;;;;4361786;32;20168;-64
2021/04/04 08:57:57;;;;;;;10.93;3.90;;;7.50;82.40;;;;;;4366940;32;20183;-64
2021/04/04 09:00:26;;;;;;;10.90;3.43;;;7.80;82.10;;;;;;4359863;32;20545;-64
2021/04/04 09:03:02;;;;;;;8.90;3.83;;;7.80;82.00;;;;;;4364743;32;20243;-66
2021/04/04 09:05:31;;;;;;;9.53;3.47;;;7.70;81.50;;;;;;4359953;32;20191;-66
2021/04/04 09:08:00;;;;;;;12.23;4.30;;;7.80;81.10;;;;;;4347910;33;20172;-63
2021/04/04 09:10:29;;;;;;;7.30;3.50;;;7.70;79.50;;;;;;4362613;32;20455;-66
2021/04/04 09:12:56;;;;;;;9.47;3.97;;;7.60;80.50;;;;;;4358497;32;20184;-64
2021/04/04 09:15:28;;;;;;;13.17;4.30;;;7.50;79.20;;;;;;4359125;32;20160;-63
2021/04/04 09:17:56;;;;;;;10.30;3.37;;;7.20;81.20;;;;;;4361636;32;20577;-65
2021/04/04 09:20:35;;;;;;;9.73;3.73;;;7.50;81.60;;;;;;4355550;32;20597;-64
2021/04/04 09:23:02;;;;;;;9.40;3.90;;;7.80;79.20;;;;;;4366428;32;20160;-63
2021/04/04 09:25:32;;;;;;;10.03;3.67;;;8.20;78.00;;;;;;4372354;32;20294;-66
2021/04/04 09:28:00;;;;;;;12.30;4.07;;;8.60;77.10;;;;;;4347637;33;20247;-63
2021/04/04 09:30:34;;;;;;;9.57;3.90;;;8.50;77.30;;;;;;4362227;32;20176;-64
2021/04/04 09:33:03;;;;;;;8.93;3.73;;;8.80;77.40;;;;;;4365602;32;20168;-63
2021/04/04 09:35:30;;;;;;;12.63;3.93;;;9.20;75.00;;;;;;4368869;32;20184;-64
2021/04/04 09:38:02;;;;;;;9.60;4.27;;;9.10;75.80;;;;;;4359230;32;20661;-64
2021/04/04 09:40:29;;;;;;;10.27;3.77;;;9.50;75.60;;;;;;4357410;32;20513;-62
2021/04/04 09:42:55;;;;;;;12.10;4.57;;;9.60;73.60;;;;;;4360997;32;20161;-61
2021/04/04 09:45:23;;;;;;;18.20;5.17;;;9.00;75.90;;;;;;4362754;32;20165;-66
2021/04/04 09:47:50;;;;;;;12.37;4.70;;;9.10;75.90;;;;;;4368030;32;20165;-66
2021/04/04 09:50:19;;;;;;;10.73;4.90;;;9.50;75.30;;;;;;4359009;32;20180;-62
2021/04/04 09:52:45;;;;;;;13.83;4.67;;;9.30;74.90;;;;;;4369082;32;20191;-63
2021/04/04 09:55:14;;;;;;;13.43;4.17;;;9.40;74.10;;;;;;4359784;32;20496;-64
2021/04/04 09:57:42;;;;;;;10.57;4.70;;;9.20;74.90;;;;;;4358005;32;20157;-62
2021/04/04 10:00:18;;;;;;;10.93;4.87;;;9.40;74.40;;;;;;4362315;32;20266;-63
2021/04/04 10:02:46;;;;;;;15.50;5.00;;;9.20;74.90;;;;;;4359552;32;20587;-64
2021/04/04 10:05:25;;;;;;;15.03;5.13;;;9.70;74.90;;;;;;4363391;32;20620;-63
2021/04/04 10:07:52;;;;;;;14.93;4.43;;;9.50;74.50;;;;;;4372051;32;20181;-63
2021/04/04 10:10:32;;;;;;;11.67;5.23;;;9.80;74.30;;;;;;4367611;32;20168;-64
2021/04/04 10:13:02;;;;;;;13.53;5.03;;;10.00;73.70;;;;;;4373228;32;20186;-65
2021/04/04 10:15:37;;;;;;;9.60;4.43;;;9.70;73.20;;;;;;4375456;32;20200;-63
2021/04/04 10:18:05;;;;;;;11.70;5.03;;;10.10;73.30;;;;;;4361666;32;20592;-64
2021/04/04 10:20:34;;;;;;;13.33;5.07;;;9.90;72.20;;;;;;4369931;32;20257;-64
2021/04/04 10:23:01;;;;;;;8.47;5.20;;;9.40;72.50;;;;;;4373570;32;20227;-64
2021/04/04 10:25:29;;;;;;;12.03;5.13;;;9.60;74.00;;;;;;4376002;32;20656;-64
2021/04/04 10:28:05;;;;;;;16.17;6.33;;;9.80;74.00;;;;;;4374164;32;20180;-64
2021/04/04 10:30:32;;;;;;;14.17;4.33;;;9.80;74.00;;;;;;4368434;32;20156;-64
2021/04/04 10:33:18;;;;;;;15.03;5.77;;;10.10;73.50;;;;;;4367704;32;20605;-63
2021/04/04 10:35:44;;;;;;;10.50;5.17;;;10.10;72.90;;;;;;4364603;32;20157;-63
2021/04/04 10:38:14;;;;;;;10.27;4.57;;;10.10;72.10;;;;;;4376759;32;20161;-64
2021/04/04 10:40:46;;;;;;;12.93;5.23;;;10.30;72.30;;;;;;4370147;32;20228;-65
2021/04/04 10:43:14;;;;;;;12.53;5.87;;;10.10;72.40;;;;;;4372868;32;20164;-64
2021/04/04 10:46:01;;;;;;;14.60;5.97;;;10.40;72.90;;;;;;4373775;32;20631;-64
2021/04/04 10:48:29;;;;;;;12.70;6.53;;;10.60;72.50;;;;;;4367569;32;20176;-64
2021/04/04 10:50:56;;;;;;;18.70;6.80;;;10.50;71.90;;;;;;4376499;32;20170;-64
2021/04/04 10:53:23;;;;;;;11.70;6.53;;;10.50;71.80;;;;;;4373074;32;20247;-65
2021/04/04 10:55:53;;;;;;;16.13;8.47;;;10.40;72.30;;;;;;4373789;32;20254;-63
2021/04/04 10:58:22;;;;;;;17.43;8.27;;;10.30;71.20;;;;;;4376416;32;20201;-64
2021/04/04 11:00:49;;;;;;;14.97;8.30;;;10.10;72.40;;;;;;4372124;32;20196;-63
2021/04/04 11:03:18;;;;;;;16.27;9.13;;;10.30;72.50;;;;;;4373823;32;20190;-64
2021/04/04 11:05:47;;;;;;;22.23;9.40;;;10.00;72.40;;;;;;4376824;32;20630;-65
2021/04/04 11:08:13;;;;;;;17.80;9.40;;;10.20;72.30;;;;;;4372051;32;20262;-64
2021/04/04 11:10:39;;;;;;;21.10;10.10;;;10.60;72.60;;;;;;4359545;33;20297;-66
2021/04/04 11:13:09;;;;;;;16.97;8.60;;;10.80;72.40;;;;;;4361999;32;20184;-63
2021/04/04 11:15:40;;;;;;;21.70;9.47;;;10.90;70.00;;;;;;4360596;33;20215;-63
2021/04/04 11:18:12;;;;;;;17.03;9.03;;;10.30;70.70;;;;;;4361508;32;20179;-64
2021/04/04 11:20:41;;;;;;;18.47;9.90;;;10.40;71.20;;;;;;4361510;32;20155;-64
2021/04/04 11:23:08;;;;;;;15.93;9.87;;;10.80;72.00;;;;;;4360941;33;20357;-64
2021/04/04 11:25:35;;;;;;;17.50;8.80;;;11.00;70.10;;;;;;4361416;32;20162;-65
2021/04/04 11:28:15;;;;;;;21.23;9.93;;;11.00;69.40;;;;;;4361006;32;20165;-63
2021/04/04 11:30:42;;;;;;;18.23;8.80;;;11.40;69.20;;;;;;4362484;32;20176;-64
2021/04/04 11:33:28;;;;;;;13.97;8.20;;;11.30;68.50;;;;;;4362541;32;20231;-63
2021/04/04 11:36:07;;;;;;;12.13;8.30;;;11.40;69.60;;;;;;4294640;33;20171;-66
2021/04/04 11:38:35;;;;;;;15.13;7.90;;;11.60;68.80;;;;;;4297710;33;20206;-64
2021/04/04 11:41:13;;;;;;;16.73;7.47;;;11.70;68.50;;;;;;4300448;33;20192;-65
2021/04/04 11:43:40;;;;;;;15.57;8.33;;;11.50;67.90;;;;;;4302363;33;20647;-69
2021/04/04 11:46:44;;;;;;;19.00;7.93;;;11.50;68.20;;;;;;4298850;33;20204;-66
2021/04/04 11:49:48;;;;;;;9.40;6.27;;;11.50;68.80;;;;;;4297696;33;20198;-65
2021/04/04 11:52:39;;;;;;;16.90;7.80;;;11.50;69.20;;;;;;4292847;33;20187;-65
2021/04/04 11:55:08;;;;;;;19.00;7.20;;;11.60;68.90;;;;;;4299555;33;20215;-64
2021/04/04 11:57:36;;;;;;;15.33;6.90;;;11.70;68.40;;;;;;4300438;33;20221;-65
2021/04/04 12:00:07;;;;;;;10.37;6.73;;;11.50;68.80;;;;;;4301751;33;20187;-65
2021/04/04 12:02:35;;;;;;;11.43;6.90;;;11.30;69.60;;;;;;4295526;33;20230;-65
2021/04/04 12:05:05;;;;;;;14.17;6.07;;;11.20;70.10;;;;;;4297320;33;20173;-64
2021/04/04 12:07:32;;;;;;;13.97;6.43;;;11.30;69.50;;;;;;4299753;33;20320;-64
2021/04/04 12:10:00;;;;;;;14.67;6.90;;;11.30;69.70;;;;;;4304130;33;20301;-65
2021/04/04 12:12:31;;;;;;;16.50;5.70;;;11.20;70.10;;;;;;4325922;33;20160;-63
2021/04/04 12:15:00;;;;;;;15.17;6.13;;;11.50;69.30;;;;;;4360154;33;20646;-65
2021/04/04 12:17:29;;;;;;;12.40;5.90;;;11.70;68.90;;;;;;4352035;32;20585;-64
2021/04/04 12:19:57;;;;;;;12.97;6.03;;;12.00;67.90;;;;;;4360230;32;20192;-65
2021/04/04 12:22:41;;;;;;;13.47;6.23;;;12.30;67.20;;;;;;4360402;32;20175;-65
2021/04/04 12:25:15;;;;;;;14.30;5.73;;;12.40;66.00;;;;;;4360386;33;20172;-64
2021/04/04 12:27:43;;;;;;;13.67;6.70;;;12.40;66.90;;;;;;4355548;33;20153;-63
2021/04/04 12:30:26;;;;;;;11.97;6.33;;;12.10;67.80;;;;;;4361436;32;20628;-65
2021/04/04 12:33:08;;;;;;;14.00;6.30;;;12.10;67.70;;;;;;4361221;32;20640;-64
2021/04/04 12:35:36;;;;;;;10.47;6.00;;;12.20;67.50;;;;;;4360518;32;20229;-64
2021/04/04 12:38:03;;;;;;;11.20;6.23;;;12.20;68.00;;;;;;4362833;32;20561;-64
2021/04/04 12:40:31;;;;;;;15.60;6.10;;;12.30;67.10;;;;;;4356913;32;20207;-64
2021/04/04 12:43:04;;;;;;;12.37;6.43;;;12.40;67.50;;;;;;4354966;33;20398;-65
2021/04/04 12:45:33;;;;;;;14.70;6.27;;;12.60;65.90;;;;;;4359867;32;20212;-65
2021/04/04 12:48:00;;;;;;;12.00;5.37;;;12.90;65.60;;;;;;4358323;32;20250;-64
2021/04/04 12:50:28;;;;;;;17.20;5.43;;;13.00;64.70;;;;;;4360564;32;20218;-63
2021/04/04 12:52:55;;;;;;;15.73;6.70;;;13.10;64.50;;;;;;4359349;32;20208;-63
2021/04/04 12:55:25;;;;;;;9.93;5.17;;;13.10;64.40;;;;;;4356912;32;20188;-65
2021/04/04 12:57:56;;;;;;;12.93;6.30;;;12.70;65.30;;;;;;4356917;33;20231;-64
2021/04/04 13:00:24;;;;;;;11.87;5.77;;;12.70;66.40;;;;;;4356083;33;20180;-66
2021/04/04 13:02:51;;;;;;;16.20;5.97;;;12.70;67.30;;;;;;4359089;33;20168;-64
2021/04/04 13:05:18;;;;;;;14.13;5.43;;;12.60;66.70;;;;;;4359427;33;20173;-63
2021/04/04 13:07:45;;;;;;;14.13;6.70;;;12.50;66.70;;;;;;4358483;33;20204;-65
2021/04/04 13:10:12;;;;;;;13.90;5.50;;;12.30;66.80;;;;;;4358850;33;20235;-66